sensor_id;sensor_type;location;lat;lon;timestamp;pressure;altitude;pressure_sealevel;temperature;humidity
48964;BME280;34776;48.180;16.420;2023-01-30T00:00:31;100435.97;;;-2.46;72.80
48964;BME280;34776;48.180;16.420;2023-01-30T00:02:56;100427.28;;;-2.48;72.99
48964;BME280;34776;48.180;16.420;2023-01-30T00:05:22;100424.63;;;-2.53;73.01
48964;BME280;34776;48.180;16.420;2023-01-30T00:07:47;100425.41;;;-2.58;73.01
48964;BME280;34776;48.180;16.420;2023-01-30T00:10:12;100425.41;;;-2.61;73.13
48964;BME280;34776;48.180;16.420;2023-01-30T00:12:38;100430.59;;;-2.61;73.10
48964;BME280;34776;48.180;16.420;2023-01-30T00:15:04;100421.91;;;-2.63;73.12
48964;BME280;34776;48.180;16.420;2023-01-30T00:17:29;100421.00;;;-2.66;73.02
48964;BME280;34776;48.180;16.420;2023-01-30T00:19:54;100416.66;;;-2.68;73.02
48964;BME280;34776;48.180;16.420;2023-01-30T00:22:20;100414.00;;;-2.73;73.17
48964;BME280;34776;48.180;16.420;2023-01-30T00:24:45;100408.72;;;-2.77;73.34
48964;BME280;34776;48.180;16.420;2023-01-30T00:27:10;100404.34;;;-2.80;73.24
48964;BME280;34776;48.180;16.420;2023-01-30T00:29:36;100406.94;;;-2.83;73.45
48964;BME280;34776;48.180;16.420;2023-01-30T00:32:01;100401.75;;;-2.80;73.54
48964;BME280;34776;48.180;16.420;2023-01-30T00:34:27;100401.75;;;-2.83;73.57
48964;BME280;34776;48.180;16.420;2023-01-30T00:36:52;100392.16;;;-2.84;73.53
48964;BME280;34776;48.180;16.420;2023-01-30T00:39:17;100393.88;;;-2.86;73.61
48964;BME280;34776;48.180;16.420;2023-01-30T00:41:43;100389.56;;;-2.87;73.78
48964;BME280;34776;48.180;16.420;2023-01-30T00:44:26;100374.84;;;-2.85;74.02
48964;BME280;34776;48.180;16.420;2023-01-30T00:47:11;100367.88;;;-2.88;73.86
48964;BME280;34776;48.180;16.420;2023-01-30T00:49:36;100362.66;;;-2.89;74.11
48964;BME280;34776;48.180;16.420;2023-01-30T00:52:02;100363.53;;;-2.89;74.24
48964;BME280;34776;48.180;16.420;2023-01-30T00:54:28;100357.44;;;-2.89;74.44
48964;BME280;34776;48.180;16.420;2023-01-30T00:56:53;100352.28;;;-2.86;74.43
48964;BME280;34776;48.180;16.420;2023-01-30T00:59:19;100350.63;;;-2.81;74.59
48964;BME280;34776;48.180;16.420;2023-01-30T01:01:44;100347.16;;;-2.80;74.09
48964;BME280;34776;48.180;16.420;2023-01-30T01:04:09;100345.44;;;-2.78;74.37
48964;BME280;34776;48.180;16.420;2023-01-30T01:06:38;100342.81;;;-2.79;74.23
48964;BME280;34776;48.180;16.420;2023-01-30T01:09:05;100335.84;;;-2.82;74.25
48964;BME280;34776;48.180;16.420;2023-01-30T01:11:30;100330.63;;;-2.85;74.33
48964;BME280;34776;48.180;16.420;2023-01-30T01:14:00;100324.53;;;-2.87;74.39
48964;BME280;34776;48.180;16.420;2023-01-30T01:16:26;100316.75;;;-2.87;74.34
48964;BME280;34776;48.180;16.420;2023-01-30T01:18:52;100312.44;;;-2.85;74.00
48964;BME280;34776;48.180;16.420;2023-01-30T01:21:18;100306.31;;;-2.89;74.17
48964;BME280;34776;48.180;16.420;2023-01-30T01:23:49;100302.81;;;-2.91;74.18
48964;BME280;34776;48.180;16.420;2023-01-30T01:26:14;100301.91;;;-2.94;74.36
48964;BME280;34776;48.180;16.420;2023-01-30T01:28:39;100298.41;;;-2.96;74.42
48964;BME280;34776;48.180;16.420;2023-01-30T01:31:10;100303.63;;;-2.96;74.24
48964;BME280;34776;48.180;16.420;2023-01-30T01:33:36;100297.53;;;-3.00;74.57
48964;BME280;34776;48.180;16.420;2023-01-30T01:36:01;100299.25;;;-2.99;74.39
48964;BME280;34776;48.180;16.420;2023-01-30T01:38:27;100303.59;;;-2.99;74.40
48964;BME280;34776;48.180;16.420;2023-01-30T01:40:52;100300.09;;;-3.01;74.17
48964;BME280;34776;48.180;16.420;2023-01-30T01:43:31;100293.16;;;-3.04;74.31
48964;BME280;34776;48.180;16.420;2023-01-30T01:46:17;100294.00;;;-3.07;74.36
48964;BME280;34776;48.180;16.420;2023-01-30T01:48:48;100291.41;;;-3.03;74.51
48964;BME280;34776;48.180;16.420;2023-01-30T01:51:36;100281.81;;;-3.09;74.48
48964;BME280;34776;48.180;16.420;2023-01-30T01:54:07;100265.41;;;-3.07;74.42
48964;BME280;34776;48.180;16.420;2023-01-30T01:56:34;100276.63;;;-3.08;74.66
48964;BME280;34776;48.180;16.420;2023-01-30T01:59:08;100267.09;;;-3.09;74.59
48964;BME280;34776;48.180;16.420;2023-01-30T02:01:34;100268.84;;;-3.04;74.36
48964;BME280;34776;48.180;16.420;2023-01-30T02:04:03;100253.25;;;-3.04;74.39
48964;BME280;34776;48.180;16.420;2023-01-30T02:06:31;100256.72;;;-3.06;74.38
48964;BME280;34776;48.180;16.420;2023-01-30T02:08:58;100247.19;;;-3.07;74.41
48964;BME280;34776;48.180;16.420;2023-01-30T02:13:59;100250.66;;;-3.04;74.64
48964;BME280;34776;48.180;16.420;2023-01-30T02:16:25;100232.50;;;-3.01;74.58
48964;BME280;34776;48.180;16.420;2023-01-30T02:18:51;100231.66;;;-2.99;74.67
48964;BME280;34776;48.180;16.420;2023-01-30T02:29:41;100208.25;;;-2.99;74.75
48964;BME280;34776;48.180;16.420;2023-01-30T02:32:45;100213.50;;;-2.97;74.82
48964;BME280;34776;48.180;16.420;2023-01-30T02:35:25;100204.00;;;-2.92;75.01
48964;BME280;34776;48.180;16.420;2023-01-30T02:38:23;100204.00;;;-2.92;75.04
48964;BME280;34776;48.180;16.420;2023-01-30T02:46:54;100189.34;;;-2.82;75.28
48964;BME280;34776;48.180;16.420;2023-01-30T02:51:53;100179.09;;;-2.69;75.65
48964;BME280;34776;48.180;16.420;2023-01-30T02:54:20;100175.59;;;-2.68;75.36
48964;BME280;34776;48.180;16.420;2023-01-30T02:56:49;100168.63;;;-2.72;75.33
48964;BME280;34776;48.180;16.420;2023-01-30T02:59:20;100169.44;;;-2.80;75.12
48964;BME280;34776;48.180;16.420;2023-01-30T03:04:51;100171.94;;;-2.91;74.89
48964;BME280;34776;48.180;16.420;2023-01-30T03:10:01;100163.25;;;-2.93;74.67
48964;BME280;34776;48.180;16.420;2023-01-30T03:12:59;100149.31;;;-3.03;74.49
48964;BME280;34776;48.180;16.420;2023-01-30T03:15:28;100154.44;;;-3.11;74.35
48964;BME280;34776;48.180;16.420;2023-01-30T03:17:56;100151.75;;;-3.20;74.63
48964;BME280;34776;48.180;16.420;2023-01-30T03:20:21;100158.59;;;-3.28;74.71
48964;BME280;34776;48.180;16.420;2023-01-30T03:22:47;100156.84;;;-3.28;74.73
48964;BME280;34776;48.180;16.420;2023-01-30T03:25:17;100154.25;;;-3.29;74.82
48964;BME280;34776;48.180;16.420;2023-01-30T03:27:43;100153.38;;;-3.31;74.64
48964;BME280;34776;48.180;16.420;2023-01-30T03:30:10;100154.22;;;-3.34;74.55
48964;BME280;34776;48.180;16.420;2023-01-30T03:32:35;100153.34;;;-3.33;74.53
48964;BME280;34776;48.180;16.420;2023-01-30T03:35:01;100161.09;;;-3.37;74.46
48964;BME280;34776;48.180;16.420;2023-01-30T03:37:26;100143.75;;;-3.38;74.47
48964;BME280;34776;48.180;16.420;2023-01-30T03:39:52;100141.97;;;-3.45;74.33
48964;BME280;34776;48.180;16.420;2023-01-30T03:42:17;100139.28;;;-3.52;74.10
48964;BME280;34776;48.180;16.420;2023-01-30T03:44:43;100134.03;;;-3.58;74.08
48964;BME280;34776;48.180;16.420;2023-01-30T03:47:08;100124.41;;;-3.67;73.95
48964;BME280;34776;48.180;16.420;2023-01-30T03:49:33;100124.31;;;-3.74;73.85
48964;BME280;34776;48.180;16.420;2023-01-30T03:51:59;100126.88;;;-3.79;74.13
48964;BME280;34776;48.180;16.420;2023-01-30T03:54:24;100126.00;;;-3.79;74.38
48964;BME280;34776;48.180;16.420;2023-01-30T03:56:49;100112.13;;;-3.81;74.05
48964;BME280;34776;48.180;16.420;2023-01-30T03:59:15;100116.44;;;-3.80;74.53
48964;BME280;34776;48.180;16.420;2023-01-30T04:01:40;100119.03;;;-3.80;74.48
48964;BME280;34776;48.180;16.420;2023-01-30T04:04:05;100114.72;;;-3.81;74.57
48964;BME280;34776;48.180;16.420;2023-01-30T04:06:31;100119.91;;;-3.81;74.44
48964;BME280;34776;48.180;16.420;2023-01-30T04:08:56;100117.34;;;-3.78;74.54
48964;BME280;34776;48.180;16.420;2023-01-30T04:11:21;100122.53;;;-3.78;74.38
48964;BME280;34776;48.180;16.420;2023-01-30T04:13:47;100113.94;;;-3.74;74.38
48964;BME280;34776;48.180;16.420;2023-01-30T04:16:19;100110.50;;;-3.73;74.47
48964;BME280;34776;48.180;16.420;2023-01-30T04:18:45;100096.63;;;-3.72;74.36
48964;BME280;34776;48.180;16.420;2023-01-30T04:21:12;100095.78;;;-3.73;74.33
48964;BME280;34776;48.180;16.420;2023-01-30T04:23:38;100095.75;;;-3.76;74.47
48964;BME280;34776;48.180;16.420;2023-01-30T04:26:04;100083.63;;;-3.77;74.55
48964;BME280;34776;48.180;16.420;2023-01-30T04:28:30;100087.09;;;-3.78;74.67
48964;BME280;34776;48.180;16.420;2023-01-30T04:30:56;100081.00;;;-3.78;74.78
48964;BME280;34776;48.180;16.420;2023-01-30T04:33:21;100066.31;;;-3.76;74.76
48964;BME280;34776;48.180;16.420;2023-01-30T04:38:18;100080.22;;;-3.71;74.97
48964;BME280;34776;48.180;16.420;2023-01-30T04:40:50;100078.50;;;-3.69;75.07
48964;BME280;34776;48.180;16.420;2023-01-30T04:43:16;100074.22;;;-3.64;75.02
48964;BME280;34776;48.180;16.420;2023-01-30T04:45:45;100074.28;;;-3.58;74.89
48964;BME280;34776;48.180;16.420;2023-01-30T04:48:11;100076.94;;;-3.55;74.80
48964;BME280;34776;48.180;16.420;2023-01-30T04:50:37;100074.34;;;-3.55;74.72
48964;BME280;34776;48.180;16.420;2023-01-30T04:53:03;100070.00;;;-3.54;74.73
48964;BME280;34776;48.180;16.420;2023-01-30T04:55:29;100076.06;;;-3.57;74.81
48964;BME280;34776;48.180;16.420;2023-01-30T04:57:54;100069.97;;;-3.59;74.94
48964;BME280;34776;48.180;16.420;2023-01-30T05:00:19;100067.38;;;-3.56;74.94
48964;BME280;34776;48.180;16.420;2023-01-30T05:02:45;100066.53;;;-3.55;75.05
48964;BME280;34776;48.180;16.420;2023-01-30T05:05:10;100062.25;;;-3.53;75.23
48964;BME280;34776;48.180;16.420;2023-01-30T05:07:35;100047.56;;;-3.46;75.26
48964;BME280;34776;48.180;16.420;2023-01-30T05:10:01;100060.63;;;-3.38;75.44
48964;BME280;34776;48.180;16.420;2023-01-30T05:12:27;100055.53;;;-3.29;75.44
48964;BME280;34776;48.180;16.420;2023-01-30T05:14:53;100053.84;;;-3.19;75.44
48964;BME280;34776;48.180;16.420;2023-01-30T05:17:18;100053.06;;;-3.09;75.37
48964;BME280;34776;48.180;16.420;2023-01-30T05:19:43;100035.78;;;-3.02;75.32
48964;BME280;34776;48.180;16.420;2023-01-30T05:22:09;100041.94;;;-2.91;75.53
48964;BME280;34776;48.180;16.420;2023-01-30T05:24:34;100042.03;;;-2.79;75.44
48964;BME280;34776;48.180;16.420;2023-01-30T05:27:01;100024.75;;;-2.68;75.38
48964;BME280;34776;48.180;16.420;2023-01-30T05:29:26;100031.72;;;-2.60;75.15
48964;BME280;34776;48.180;16.420;2023-01-30T05:31:51;100034.34;;;-2.54;75.06
48964;BME280;34776;48.180;16.420;2023-01-30T05:34:17;100027.47;;;-2.48;75.39
48964;BME280;34776;48.180;16.420;2023-01-30T05:36:42;100026.63;;;-2.42;75.06
48964;BME280;34776;48.180;16.420;2023-01-30T05:39:07;100007.53;;;-2.38;75.13
48964;BME280;34776;48.180;16.420;2023-01-30T05:41:33;100019.69;;;-2.40;74.84
48964;BME280;34776;48.180;16.420;2023-01-30T05:43:58;100016.19;;;-2.42;74.77
48964;BME280;34776;48.180;16.420;2023-01-30T05:46:23;100016.19;;;-2.45;75.19
48964;BME280;34776;48.180;16.420;2023-01-30T05:48:49;100022.28;;;-2.40;75.15
48964;BME280;34776;48.180;16.420;2023-01-30T05:51:19;100017.97;;;-2.38;74.96
48964;BME280;34776;48.180;16.420;2023-01-30T05:53:45;100019.72;;;-2.37;74.82
48964;BME280;34776;48.180;16.420;2023-01-30T05:56:11;100027.50;;;-2.35;74.60
48964;BME280;34776;48.180;16.420;2023-01-30T05:58:36;100042.25;;;-2.39;74.54
48964;BME280;34776;48.180;16.420;2023-01-30T06:01:07;100035.28;;;-2.40;74.69
48964;BME280;34776;48.180;16.420;2023-01-30T06:03:34;100023.19;;;-2.35;74.65
48964;BME280;34776;48.180;16.420;2023-01-30T06:06:03;100012.81;;;-2.29;75.36
48964;BME280;34776;48.180;16.420;2023-01-30T06:08:29;99993.78;;;-2.09;75.80
48964;BME280;34776;48.180;16.420;2023-01-30T06:11:02;99988.59;;;-1.94;76.13
48964;BME280;34776;48.180;16.420;2023-01-30T06:13:28;99974.75;;;-1.65;76.53
48964;BME280;34776;48.180;16.420;2023-01-30T06:15:53;99986.06;;;-1.40;76.67
48964;BME280;34776;48.180;16.420;2023-01-30T06:18:18;99994.72;;;-1.10;76.66
48964;BME280;34776;48.180;16.420;2023-01-30T06:20:48;100012.06;;;-0.85;76.29
48964;BME280;34776;48.180;16.420;2023-01-30T06:23:14;100021.59;;;-0.57;76.02
48964;BME280;34776;48.180;16.420;2023-01-30T06:25:43;100016.28;;;-0.27;75.50
48964;BME280;34776;48.180;16.420;2023-01-30T06:28:09;100004.84;;;-0.07;74.71
48964;BME280;34776;48.180;16.420;2023-01-30T06:30:34;100003.91;;;0.06;74.36
48964;BME280;34776;48.180;16.420;2023-01-30T06:33:00;99974.22;;;0.19;74.00
48964;BME280;34776;48.180;16.420;2023-01-30T06:35:25;99968.88;;;0.35;73.69
48964;BME280;34776;48.180;16.420;2023-01-30T06:37:50;99961.78;;;0.52;73.12
48964;BME280;34776;48.180;16.420;2023-01-30T06:40:16;99960.81;;;0.63;72.57
48964;BME280;34776;48.180;16.420;2023-01-30T06:42:46;99956.34;;;0.77;72.29
48964;BME280;34776;48.180;16.420;2023-01-30T06:45:16;99949.28;;;0.85;71.65
48964;BME280;34776;48.180;16.420;2023-01-30T06:47:50;99947.47;;;0.95;71.47
48964;BME280;34776;48.180;16.420;2023-01-30T06:50:17;99931.66;;;1.02;70.58
48964;BME280;34776;48.180;16.420;2023-01-30T06:52:44;99942.06;;;1.10;70.45
48964;BME280;34776;48.180;16.420;2023-01-30T06:55:11;99945.41;;;1.23;70.49
48964;BME280;34776;48.180;16.420;2023-01-30T06:57:37;99943.63;;;1.28;69.92
48964;BME280;34776;48.180;16.420;2023-01-30T07:00:09;99943.50;;;1.37;69.88
48964;BME280;34776;48.180;16.420;2023-01-30T07:02:35;99950.44;;;1.41;69.10
48964;BME280;34776;48.180;16.420;2023-01-30T07:05:01;99948.53;;;1.54;69.27
48964;BME280;34776;48.180;16.420;2023-01-30T07:07:27;99942.31;;;1.61;68.69
48964;BME280;34776;48.180;16.420;2023-01-30T07:09:53;99939.63;;;1.69;68.42
48964;BME280;34776;48.180;16.420;2023-01-30T07:12:18;99936.00;;;1.76;67.93
48964;BME280;34776;48.180;16.420;2023-01-30T07:14:44;99932.47;;;1.80;67.67
48964;BME280;34776;48.180;16.420;2023-01-30T07:17:09;99943.72;;;1.89;67.18
48964;BME280;34776;48.180;16.420;2023-01-30T07:19:35;99934.91;;;1.96;66.69
48964;BME280;34776;48.180;16.420;2023-01-30T07:22:00;99940.06;;;2.02;66.47
48964;BME280;34776;48.180;16.420;2023-01-30T07:24:25;99937.28;;;2.13;66.03
48964;BME280;34776;48.180;16.420;2023-01-30T07:26:51;99937.88;;;2.30;65.93
48964;BME280;34776;48.180;16.420;2023-01-30T07:29:16;99947.34;;;2.39;65.33
48964;BME280;34776;48.180;16.420;2023-01-30T07:31:42;99937.56;;;2.50;65.22
48964;BME280;34776;48.180;16.420;2023-01-30T07:34:07;99956.59;;;2.61;64.70
48964;BME280;34776;48.180;16.420;2023-01-30T07:36:32;99958.06;;;2.79;64.57
48964;BME280;34776;48.180;16.420;2023-01-30T07:38:59;99970.88;;;2.96;64.88
48964;BME280;34776;48.180;16.420;2023-01-30T07:41:26;99982.94;;;3.07;64.33
48964;BME280;34776;48.180;16.420;2023-01-30T07:43:51;99973.34;;;3.04;63.37
48964;BME280;34776;48.180;16.420;2023-01-30T07:46:17;99978.59;;;3.04;62.83
48964;BME280;34776;48.180;16.420;2023-01-30T07:48:44;99981.97;;;3.11;63.07
48964;BME280;34776;48.180;16.420;2023-01-30T07:51:09;99972.50;;;3.03;62.26
48964;BME280;34776;48.180;16.420;2023-01-30T07:53:34;99968.06;;;3.07;62.36
48964;BME280;34776;48.180;16.420;2023-01-30T07:56:06;99972.44;;;3.07;62.15
48964;BME280;34776;48.180;16.420;2023-01-30T07:58:31;99965.34;;;3.12;62.06
48964;BME280;34776;48.180;16.420;2023-01-30T08:00:57;99958.13;;;3.23;62.17
48964;BME280;34776;48.180;16.420;2023-01-30T08:03:22;99965.00;;;3.30;61.66
48964;BME280;34776;48.180;16.420;2023-01-30T08:05:47;99961.34;;;3.37;61.05
48964;BME280;34776;48.180;16.420;2023-01-30T08:08:14;99950.69;;;3.47;60.74
48964;BME280;34776;48.180;16.420;2023-01-30T08:10:40;99941.78;;;3.52;60.37
48964;BME280;34776;48.180;16.420;2023-01-30T08:13:06;99931.13;;;3.60;59.66
48964;BME280;34776;48.180;16.420;2023-01-30T08:15:31;99911.91;;;3.58;59.84
48964;BME280;34776;48.180;16.420;2023-01-30T08:17:58;99938.81;;;3.69;59.39
48964;BME280;34776;48.180;16.420;2023-01-30T08:20:25;99936.25;;;3.66;58.84
48964;BME280;34776;48.180;16.420;2023-01-30T08:22:51;99922.34;;;3.61;58.94
48964;BME280;34776;48.180;16.420;2023-01-30T08:25:17;99929.31;;;3.63;58.38
48964;BME280;34776;48.180;16.420;2023-01-30T08:27:42;99929.25;;;3.65;58.71
48964;BME280;34776;48.180;16.420;2023-01-30T08:30:09;99925.38;;;3.83;58.66
48964;BME280;34776;48.180;16.420;2023-01-30T08:32:34;99917.41;;;3.88;58.30
48964;BME280;34776;48.180;16.420;2023-01-30T08:35:00;99892.19;;;3.79;57.67
48964;BME280;34776;48.180;16.420;2023-01-30T08:37:25;99897.75;;;4.04;57.81
48964;BME280;34776;48.180;16.420;2023-01-30T08:39:50;99892.34;;;4.46;56.98
48964;BME280;34776;48.180;16.420;2023-01-30T08:42:16;99879.31;;;4.76;56.02
48964;BME280;34776;48.180;16.420;2023-01-30T08:44:41;99869.41;;;5.17;54.61
48964;BME280;34776;48.180;16.420;2023-01-30T08:47:06;99853.22;;;5.88;52.63
48964;BME280;34776;48.180;16.420;2023-01-30T08:49:32;99845.53;;;6.87;51.61
48964;BME280;34776;48.180;16.420;2023-01-30T08:51:57;99843.59;;;6.67;50.66
48964;BME280;34776;48.180;16.420;2023-01-30T08:54:22;99851.88;;;6.57;50.73
48964;BME280;34776;48.180;16.420;2023-01-30T08:56:48;99846.50;;;7.10;50.74
48964;BME280;34776;48.180;16.420;2023-01-30T08:59:13;99841.25;;;7.32;49.83
48964;BME280;34776;48.180;16.420;2023-01-30T09:01:38;99834.13;;;8.02;49.96
48964;BME280;34776;48.180;16.420;2023-01-30T09:04:04;99821.00;;;8.84;48.37
48964;BME280;34776;48.180;16.420;2023-01-30T09:06:29;99831.16;;;8.74;46.80
48964;BME280;34776;48.180;16.420;2023-01-30T09:08:55;99809.44;;;8.45;47.31
48964;BME280;34776;48.180;16.420;2023-01-30T09:11:20;99824.75;;;7.95;46.70
48964;BME280;34776;48.180;16.420;2023-01-30T09:13:46;99824.16;;;6.95;46.58
48964;BME280;34776;48.180;16.420;2023-01-30T09:16:11;99811.44;;;6.29;48.39
48964;BME280;34776;48.180;16.420;2023-01-30T09:18:41;99825.13;;;6.16;49.54
48964;BME280;34776;48.180;16.420;2023-01-30T09:21:09;99818.81;;;5.92;48.69
48964;BME280;34776;48.180;16.420;2023-01-30T09:23:35;99834.81;;;5.59;49.50
48964;BME280;34776;48.180;16.420;2023-01-30T09:26:00;99824.91;;;5.37;49.42
48964;BME280;34776;48.180;16.420;2023-01-30T09:28:26;99831.22;;;5.32;50.17
48964;BME280;34776;48.180;16.420;2023-01-30T09:30:51;99811.19;;;5.26;50.39
48964;BME280;34776;48.180;16.420;2023-01-30T09:33:17;99816.63;;;5.20;50.53
48964;BME280;34776;48.180;16.420;2023-01-30T09:35:48;99808.25;;;5.05;50.46
48964;BME280;34776;48.180;16.420;2023-01-30T09:38:14;99812.69;;;5.05;50.97
48964;BME280;34776;48.180;16.420;2023-01-30T09:46:29;99788.16;;;4.72;51.13
48964;BME280;34776;48.180;16.420;2023-01-30T09:49:04;99761.13;;;4.66;50.91
48964;BME280;34776;48.180;16.420;2023-01-30T09:54:17;99742.34;;;4.79;50.56
48964;BME280;34776;48.180;16.420;2023-01-30T09:59:44;99744.16;;;4.77;49.51
48964;BME280;34776;48.180;16.420;2023-01-30T10:02:43;99720.47;;;4.77;49.05
48964;BME280;34776;48.180;16.420;2023-01-30T10:05:11;99717.28;;;4.65;51.19
48964;BME280;34776;48.180;16.420;2023-01-30T10:12:55;99680.91;;;5.36;49.00
48964;BME280;34776;48.180;16.420;2023-01-30T10:15:49;99668.91;;;5.79;50.67
48964;BME280;34776;48.180;16.420;2023-01-30T10:26:38;99644.00;;;6.85;49.58
48964;BME280;34776;48.180;16.420;2023-01-30T10:29:20;99630.75;;;6.87;48.08
48964;BME280;34776;48.180;16.420;2023-01-30T10:32:04;99659.91;;;6.84;48.36
48964;BME280;34776;48.180;16.420;2023-01-30T10:34:37;99634.19;;;6.65;50.21
48964;BME280;34776;48.180;16.420;2023-01-30T10:37:21;99640.06;;;6.50;50.45
48964;BME280;34776;48.180;16.420;2023-01-30T10:39:58;99605.97;;;6.44;50.18
48964;BME280;34776;48.180;16.420;2023-01-30T10:42:28;99601.16;;;6.55;50.77
48964;BME280;34776;48.180;16.420;2023-01-30T10:45:16;99598.06;;;6.44;49.41
48964;BME280;34776;48.180;16.420;2023-01-30T10:47:59;99598.50;;;6.32;50.74
48964;BME280;34776;48.180;16.420;2023-01-30T10:51:09;99591.13;;;6.18;51.05
48964;BME280;34776;48.180;16.420;2023-01-30T10:53:48;99571.56;;;6.00;49.98
48964;BME280;34776;48.180;16.420;2023-01-30T10:56:35;99583.50;;;6.10;50.96
48964;BME280;34776;48.180;16.420;2023-01-30T10:59:57;99580.16;;;6.05;50.67
48964;BME280;34776;48.180;16.420;2023-01-30T11:08:57;99571.28;;;5.57;52.68
48964;BME280;34776;48.180;16.420;2023-01-30T11:11:32;99556.56;;;5.75;52.17
48964;BME280;34776;48.180;16.420;2023-01-30T11:14:01;99562.63;;;6.04;51.98
48964;BME280;34776;48.180;16.420;2023-01-30T11:16:27;99569.09;;;5.95;51.73
48964;BME280;34776;48.180;16.420;2023-01-30T11:18:53;99557.13;;;5.85;51.57
48964;BME280;34776;48.180;16.420;2023-01-30T11:21:27;99565.06;;;5.83;50.67
48964;BME280;34776;48.180;16.420;2023-01-30T11:23:54;99563.81;;;5.95;50.87
48964;BME280;34776;48.180;16.420;2023-01-30T11:26:33;99551.88;;;6.08;49.71
48964;BME280;34776;48.180;16.420;2023-01-30T11:29:14;99536.81;;;6.12;48.73
48964;BME280;34776;48.180;16.420;2023-01-30T11:31:40;99497.78;;;6.44;49.70
48964;BME280;34776;48.180;16.420;2023-01-30T11:34:14;99511.75;;;6.46;48.47
48964;BME280;34776;48.180;16.420;2023-01-30T11:36:40;99517.66;;;6.30;49.05
48964;BME280;34776;48.180;16.420;2023-01-30T11:44:30;99495.28;;;6.17;49.21
48964;BME280;34776;48.180;16.420;2023-01-30T11:47:02;99475.53;;;6.27;48.63
48964;BME280;34776;48.180;16.420;2023-01-30T11:49:35;99467.31;;;6.35;49.13
48964;BME280;34776;48.180;16.420;2023-01-30T11:52:03;99462.16;;;6.54;48.89
48964;BME280;34776;48.180;16.420;2023-01-30T11:54:34;99462.91;;;6.58;48.29
48964;BME280;34776;48.180;16.420;2023-01-30T11:57:03;99460.19;;;6.59;48.46
48964;BME280;34776;48.180;16.420;2023-01-30T11:59:33;99449.03;;;6.75;48.40
48964;BME280;34776;48.180;16.420;2023-01-30T12:02:24;99437.84;;;6.88;47.06
48964;BME280;34776;48.180;16.420;2023-01-30T12:04:55;99438.88;;;7.06;47.79
48964;BME280;34776;48.180;16.420;2023-01-30T12:07:29;99441.53;;;7.27;47.38
48964;BME280;34776;48.180;16.420;2023-01-30T12:09:57;99420.63;;;7.41;47.55
48964;BME280;34776;48.180;16.420;2023-01-30T12:14:52;99418.16;;;7.95;46.26
48964;BME280;34776;48.180;16.420;2023-01-30T12:18:25;99410.84;;;8.19;44.22
48964;BME280;34776;48.180;16.420;2023-01-30T12:20:45;99413.75;;;8.68;42.80
48964;BME280;34776;48.180;16.420;2023-01-30T12:30:56;99428.94;;;7.52;46.39
48964;BME280;34776;48.180;16.420;2023-01-30T12:33:28;99431.81;;;7.27;46.45
48964;BME280;34776;48.180;16.420;2023-01-30T12:46:58;99446.56;;;6.48;49.14
48964;BME280;34776;48.180;16.420;2023-01-30T12:49:45;99441.69;;;6.39;49.74
48964;BME280;34776;48.180;16.420;2023-01-30T12:55:29;99456.72;;;6.37;50.35
48964;BME280;34776;48.180;16.420;2023-01-30T12:58:16;99445.41;;;6.11;51.32
48964;BME280;34776;48.180;16.420;2023-01-30T13:00:58;99444.31;;;5.93;51.69
48964;BME280;34776;48.180;16.420;2023-01-30T13:06:26;99458.53;;;5.65;52.63
48964;BME280;34776;48.180;16.420;2023-01-30T13:12:03;99488.31;;;5.44;53.41
48964;BME280;34776;48.180;16.420;2023-01-30T13:26:01;99509.97;;;4.74;58.12
48964;BME280;34776;48.180;16.420;2023-01-30T13:28:35;99500.75;;;4.60;59.01
48964;BME280;34776;48.180;16.420;2023-01-30T13:31:05;99500.50;;;4.41;60.38
48964;BME280;34776;48.180;16.420;2023-01-30T13:33:36;99518.41;;;4.29;61.43
48964;BME280;34776;48.180;16.420;2023-01-30T13:36:18;99510.16;;;4.11;63.08
48964;BME280;34776;48.180;16.420;2023-01-30T13:39:09;99502.44;;;4.05;64.59
48964;BME280;34776;48.180;16.420;2023-01-30T13:41:39;99495.56;;;4.01;64.70
48964;BME280;34776;48.180;16.420;2023-01-30T13:44:22;99487.25;;;3.86;67.14
48964;BME280;34776;48.180;16.420;2023-01-30T13:46:51;99477.13;;;3.73;66.81
48964;BME280;34776;48.180;16.420;2023-01-30T13:49:27;99477.16;;;3.71;67.72
48964;BME280;34776;48.180;16.420;2023-01-30T13:52:06;99486.03;;;3.67;69.75
48964;BME280;34776;48.180;16.420;2023-01-30T13:54:48;99489.09;;;3.52;70.70
48964;BME280;34776;48.180;16.420;2023-01-30T13:57:23;99483.97;;;3.47;71.96
48964;BME280;34776;48.180;16.420;2023-01-30T14:08:37;99462.63;;;3.28;77.35
48964;BME280;34776;48.180;16.420;2023-01-30T14:11:04;99469.69;;;3.24;78.09
48964;BME280;34776;48.180;16.420;2023-01-30T14:13:57;99480.00;;;3.32;78.40
48964;BME280;34776;48.180;16.420;2023-01-30T14:16:38;99459.16;;;3.26;78.78
48964;BME280;34776;48.180;16.420;2023-01-30T14:21:56;99448.41;;;3.35;79.55
48964;BME280;34776;48.180;16.420;2023-01-30T14:24:22;99434.38;;;3.36;80.00
48964;BME280;34776;48.180;16.420;2023-01-30T14:37:44;99425.66;;;3.65;80.08
48964;BME280;34776;48.180;16.420;2023-01-30T14:40:37;99417.63;;;3.70;79.95
48964;BME280;34776;48.180;16.420;2023-01-30T14:45:55;99428.78;;;3.78;79.68
48964;BME280;34776;48.180;16.420;2023-01-30T14:53:58;99446.97;;;4.14;77.12
48964;BME280;34776;48.180;16.420;2023-01-30T14:59:19;99459.34;;;4.39;77.66
48964;BME280;34776;48.180;16.420;2023-01-30T15:02:05;99467.84;;;4.47;76.69
48964;BME280;34776;48.180;16.420;2023-01-30T15:04:44;99464.50;;;4.42;75.50
48964;BME280;34776;48.180;16.420;2023-01-30T15:10:05;99470.97;;;4.32;76.64
48964;BME280;34776;48.180;16.420;2023-01-30T15:20:24;99472.44;;;4.12;75.89
48964;BME280;34776;48.180;16.420;2023-01-30T15:25:46;99458.75;;;4.01;75.21
48964;BME280;34776;48.180;16.420;2023-01-30T15:28:34;99458.84;;;3.98;77.01
48964;BME280;34776;48.180;16.420;2023-01-30T15:31:10;99463.41;;;3.93;76.34
48964;BME280;34776;48.180;16.420;2023-01-30T15:33:51;99451.19;;;3.90;76.44
48964;BME280;34776;48.180;16.420;2023-01-30T15:36:31;99475.81;;;3.88;76.06